Time;durP1;ratioP1;P1;durP2;ratioP2;P2;SDS_P1;SDS_P2;PMS_P1;PMS_P2;Temp;Humidity;BMP_temperature;BMP_pressure;BME280_temperature;BME280_humidity;BME280_pressure;Samples;Min_cycle;Max_cycle;Signal;HPM_P1;HPM_P2
2022/01/16 00:00:02;;;;;;;20.35;10.48;;;;;;;;;;5012076;28;20203;-76
2022/01/16 00:05:11;;;;;;;17.20;11.65;;;;;;;;;;5013050;28;20247;-76
2022/01/16 00:07:38;;;;;;;15.18;11.18;;;;;;;;;;5012277;28;20699;-76
2022/01/16 00:10:06;;;;;;;17.92;12.43;;;;;;;;;;5012045;28;20199;-76
2022/01/16 00:12:35;;;;;;;14.52;10.35;;;;;;;;;;5014041;28;20192;-80
2022/01/16 00:15:02;;;;;;;15.52;10.65;;;;;;;;;;5011821;28;20199;-74
2022/01/16 00:17:34;;;;;;;16.02;10.85;;;;;;;;;;5013286;28;20227;-77
2022/01/16 00:20:01;;;;;;;16.85;11.43;;;;;;;;;;5011023;28;20223;-77
2022/01/16 00:22:34;;;;;;;15.50;10.20;;;;;;;;;;5012708;28;20283;-78
2022/01/16 00:25:02;;;;;;;18.50;11.48;;;;;;;;;;5013903;28;20226;-77
2022/01/16 00:27:30;;;;;;;14.73;11.05;;;;;;;;;;5012036;28;20208;-76
2022/01/16 00:29:57;;;;;;;17.02;11.90;;;;;;;;;;5004057;28;20251;-77
2022/01/16 00:32:24;;;;;;;14.90;9.05;;;;;;;;;;5012559;28;20193;-77
2022/01/16 00:34:51;;;;;;;14.43;10.73;;;;;;;;;;5014070;28;20196;-77
2022/01/16 00:37:18;;;;;;;17.90;11.00;;;;;;;;;;5013416;28;20203;-77
2022/01/16 00:39:46;;;;;;;17.88;10.90;;;;;;;;;;5012742;28;20196;-76
2022/01/16 00:42:13;;;;;;;17.10;11.45;;;;;;;;;;5013854;28;20211;-76
2022/01/16 00:44:40;;;;;;;18.13;11.43;;;;;;;;;;5012429;28;20239;-75
2022/01/16 00:47:07;;;;;;;17.70;10.40;;;;;;;;;;5011867;28;20196;-76
2022/01/16 00:49:38;;;;;;;14.65;10.02;;;;;;;;;;5012934;28;20246;-76
2022/01/16 00:52:06;;;;;;;19.70;11.73;;;;;;;;;;5003512;28;20197;-76
2022/01/16 00:54:33;;;;;;;17.73;11.90;;;;;;;;;;5009459;28;20197;-76
2022/01/16 00:57:01;;;;;;;17.33;9.50;;;;;;;;;;5012690;28;20204;-76
2022/01/16 00:59:28;;;;;;;19.33;11.85;;;;;;;;;;5007478;28;20193;-77
2022/01/16 01:01:55;;;;;;;14.32;11.05;;;;;;;;;;5013383;28;20574;-76
2022/01/16 01:04:23;;;;;;;19.15;11.27;;;;;;;;;;5013190;28;20215;-76
2022/01/16 01:06:50;;;;;;;19.30;12.05;;;;;;;;;;5000085;28;20267;-76
2022/01/16 01:09:17;;;;;;;22.65;13.25;;;;;;;;;;5001432;28;20247;-76
2022/01/16 01:11:48;;;;;;;18.17;10.95;;;;;;;;;;5011827;28;20563;-76
2022/01/16 01:14:24;;;;;;;17.55;12.35;;;;;;;;;;5009483;28;20196;-76
2022/01/16 01:16:53;;;;;;;15.20;10.93;;;;;;;;;;5009653;28;20293;-76
2022/01/16 01:19:22;;;;;;;19.27;11.10;;;;;;;;;;5007421;28;20212;-76
2022/01/16 01:21:49;;;;;;;16.98;11.68;;;;;;;;;;5008602;28;20197;-76
2022/01/16 01:24:16;;;;;;;14.30;10.88;;;;;;;;;;5012015;28;20227;-76
2022/01/16 01:26:52;;;;;;;15.45;10.27;;;;;;;;;;5013255;28;20242;-76
2022/01/16 01:29:21;;;;;;;18.83;10.52;;;;;;;;;;5005947;28;20235;-76
2022/01/16 01:31:49;;;;;;;16.85;12.05;;;;;;;;;;5011285;28;20250;-76
2022/01/16 01:34:16;;;;;;;16.98;12.98;;;;;;;;;;5013128;28;20188;-76
2022/01/16 01:36:47;;;;;;;15.90;10.20;;;;;;;;;;4999935;28;20193;-76
2022/01/16 01:39:15;;;;;;;20.13;10.98;;;;;;;;;;5000062;28;20200;-76
2022/01/16 01:41:42;;;;;;;14.85;11.75;;;;;;;;;;5011896;28;20196;-76
2022/01/16 01:52:24;;;;;;;15.60;11.45;;;;;;;;;;5009493;28;20282;-75
2022/01/16 01:54:51;;;;;;;16.00;11.75;;;;;;;;;;5012538;28;20211;-75
2022/01/16 01:57:18;;;;;;;15.50;11.63;;;;;;;;;;5012257;28;20663;-75
2022/01/16 01:59:45;;;;;;;17.95;11.00;;;;;;;;;;5005651;28;20595;-75
2022/01/16 02:02:14;;;;;;;16.42;11.20;;;;;;;;;;5011632;28;20199;-75
2022/01/16 02:04:41;;;;;;;15.02;11.45;;;;;;;;;;5010493;28;20564;-76
2022/01/16 02:07:08;;;;;;;19.05;10.60;;;;;;;;;;5003180;28;20196;-76
2022/01/16 02:09:35;;;;;;;15.00;10.40;;;;;;;;;;5010305;28;20196;-76
2022/01/16 02:12:03;;;;;;;16.95;11.77;;;;;;;;;;5011562;28;20207;-76
2022/01/16 02:14:34;;;;;;;14.52;10.23;;;;;;;;;;5011443;28;20193;-76
2022/01/16 02:28:09;;;;;;;19.05;12.20;;;;;;;;;;5007757;28;20199;-76
2022/01/16 02:31:01;;;;;;;17.15;10.52;;;;;;;;;;5006860;28;20251;-77
2022/01/16 02:36:24;;;;;;;14.70;10.32;;;;;;;;;;5002167;28;20675;-77
2022/01/16 02:38:53;;;;;;;16.75;11.70;;;;;;;;;;5008799;28;20270;-76
2022/01/16 02:41:20;;;;;;;17.08;12.00;;;;;;;;;;5010210;28;20196;-77
2022/01/16 02:43:50;;;;;;;18.42;12.82;;;;;;;;;;5008519;28;20222;-77
2022/01/16 02:49:01;;;;;;;16.13;11.35;;;;;;;;;;5010920;28;20207;-77
2022/01/16 02:51:29;;;;;;;17.40;11.90;;;;;;;;;;5004550;28;20203;-77
2022/01/16 02:53:58;;;;;;;14.80;11.35;;;;;;;;;;5010879;28;20196;-77
2022/01/16 02:56:25;;;;;;;18.02;11.73;;;;;;;;;;5011156;28;20219;-76
2022/01/16 02:58:52;;;;;;;14.95;11.25;;;;;;;;;;5009770;28;20279;-76
2022/01/16 03:01:20;;;;;;;14.48;11.85;;;;;;;;;;5010962;28;20279;-77
2022/01/16 03:03:47;;;;;;;19.55;13.80;;;;;;;;;;5011514;28;20188;-76
2022/01/16 03:06:15;;;;;;;18.08;11.73;;;;;;;;;;5006654;28;20259;-76
2022/01/16 03:08:42;;;;;;;19.73;13.02;;;;;;;;;;5011387;28;20184;-76
2022/01/16 03:11:23;;;;;;;14.80;11.88;;;;;;;;;;5010349;28;20200;-76
2022/01/16 03:13:50;;;;;;;18.50;12.50;;;;;;;;;;5007770;28;20200;-77
2022/01/16 03:16:18;;;;;;;18.95;13.35;;;;;;;;;;5010586;28;20212;-75
2022/01/16 03:24:15;;;;;;;18.80;12.32;;;;;;;;;;5008893;28;20227;-76
2022/01/16 03:26:43;;;;;;;16.40;11.73;;;;;;;;;;5011089;28;20196;-77
2022/01/16 03:29:10;;;;;;;18.55;13.85;;;;;;;;;;5005616;28;20200;-77
2022/01/16 03:31:37;;;;;;;17.23;13.13;;;;;;;;;;5004462;28;20200;-77
2022/01/16 03:34:05;;;;;;;15.95;11.40;;;;;;;;;;5010958;28;20185;-77
2022/01/16 03:36:32;;;;;;;16.80;13.30;;;;;;;;;;5005568;28;20204;-77
2022/01/16 03:38:59;;;;;;;13.82;10.80;;;;;;;;;;5009165;28;20200;-78
2022/01/16 03:41:27;;;;;;;17.77;12.07;;;;;;;;;;5008274;28;20215;-78
2022/01/16 03:43:55;;;;;;;18.23;13.45;;;;;;;;;;5000265;28;20232;-78
2022/01/16 03:46:22;;;;;;;15.10;11.50;;;;;;;;;;5005848;28;20227;-78
2022/01/16 03:48:49;;;;;;;15.85;11.63;;;;;;;;;;5008479;28;20192;-78
2022/01/16 03:51:16;;;;;;;16.40;12.00;;;;;;;;;;5009064;28;20192;-78
2022/01/16 03:53:44;;;;;;;13.93;10.07;;;;;;;;;;5009089;28;20197;-78
2022/01/16 03:56:11;;;;;;;14.75;10.80;;;;;;;;;;5010650;28;20655;-77
2022/01/16 03:58:38;;;;;;;15.15;10.23;;;;;;;;;;5007058;28;20200;-77
2022/01/16 04:01:07;;;;;;;15.88;12.45;;;;;;;;;;5003733;28;20224;-78
2022/01/16 04:03:34;;;;;;;15.68;11.27;;;;;;;;;;5011196;28;20276;-78
2022/01/16 04:06:01;;;;;;;14.93;11.75;;;;;;;;;;5012390;28;20240;-78
2022/01/16 04:08:29;;;;;;;12.52;10.02;;;;;;;;;;5014368;28;20251;-77
2022/01/16 04:10:56;;;;;;;14.05;11.60;;;;;;;;;;5013171;28;20192;-77
2022/01/16 04:13:23;;;;;;;17.05;10.23;;;;;;;;;;5013823;28;20200;-78
2022/01/16 04:15:50;;;;;;;17.83;11.05;;;;;;;;;;5010846;28;20204;-78
2022/01/16 04:18:18;;;;;;;15.25;10.48;;;;;;;;;;5014079;28;20211;-78
2022/01/16 04:20:45;;;;;;;15.40;10.70;;;;;;;;;;5008648;28;20200;-78
2022/01/16 04:23:12;;;;;;;13.30;10.57;;;;;;;;;;5003245;28;20189;-78
2022/01/16 04:25:40;;;;;;;12.68;10.13;;;;;;;;;;5014075;28;20232;-78
2022/01/16 04:28:07;;;;;;;13.13;10.43;;;;;;;;;;5013647;28;20250;-78
2022/01/16 04:30:34;;;;;;;16.83;10.73;;;;;;;;;;5008435;28;20193;-78
2022/01/16 04:33:01;;;;;;;14.18;10.88;;;;;;;;;;5006841;28;20204;-79
2022/01/16 04:35:29;;;;;;;14.13;11.20;;;;;;;;;;5011651;28;20526;-80
2022/01/16 04:37:56;;;;;;;13.30;10.55;;;;;;;;;;5013572;28;20193;-79
2022/01/16 04:40:24;;;;;;;15.05;11.68;;;;;;;;;;5013183;28;20606;-80
2022/01/16 04:45:35;;;;;;;21.42;12.70;;;;;;;;;;5005787;28;20358;-78
2022/01/16 04:48:03;;;;;;;15.63;12.27;;;;;;;;;;5013988;28;20200;-78
2022/01/16 04:50:32;;;;;;;14.18;11.00;;;;;;;;;;5011714;28;20197;-77
2022/01/16 04:52:59;;;;;;;17.42;12.55;;;;;;;;;;5013446;28;20199;-77
2022/01/16 04:55:27;;;;;;;14.65;9.80;;;;;;;;;;5013337;28;20188;-77
2022/01/16 04:57:55;;;;;;;19.92;11.57;;;;;;;;;;5013642;28;20192;-77
2022/01/16 05:00:22;;;;;;;16.10;11.27;;;;;;;;;;5002397;28;20196;-77
2022/01/16 05:02:49;;;;;;;22.75;14.65;;;;;;;;;;5012320;28;20459;-77
2022/01/16 05:05:16;;;;;;;22.98;13.60;;;;;;;;;;5012871;28;20649;-77
2022/01/16 05:07:44;;;;;;;19.13;12.52;;;;;;;;;;5012052;28;20432;-77
2022/01/16 05:10:13;;;;;;;18.33;13.73;;;;;;;;;;5012331;28;20197;-77
2022/01/16 05:12:43;;;;;;;17.92;12.82;;;;;;;;;;5013372;28;20222;-76
2022/01/16 05:17:56;;;;;;;21.67;13.35;;;;;;;;;;5013174;28;20222;-76
2022/01/16 05:20:23;;;;;;;16.38;11.90;;;;;;;;;;5010273;28;20729;-77
2022/01/16 05:22:51;;;;;;;16.20;11.90;;;;;;;;;;5008482;28;20279;-76
2022/01/16 05:25:18;;;;;;;21.85;13.35;;;;;;;;;;5012743;28;20694;-76
2022/01/16 05:27:46;;;;;;;16.90;12.00;;;;;;;;;;5012684;28;20287;-75
2022/01/16 05:30:13;;;;;;;22.00;15.70;;;;;;;;;;5001185;28;20200;-76
2022/01/16 05:32:40;;;;;;;16.77;12.32;;;;;;;;;;5012937;28;20190;-76
2022/01/16 05:35:08;;;;;;;19.15;12.98;;;;;;;;;;5012765;28;20287;-75
2022/01/16 05:37:35;;;;;;;18.88;13.48;;;;;;;;;;5009527;28;20196;-76
2022/01/16 05:40:04;;;;;;;21.02;14.57;;;;;;;;;;5011598;28;20199;-76
2022/01/16 05:42:32;;;;;;;16.83;14.10;;;;;;;;;;5012441;28;20200;-79
2022/01/16 05:44:59;;;;;;;19.52;13.18;;;;;;;;;;5010942;28;20278;-77
2022/01/16 05:47:26;;;;;;;20.65;13.65;;;;;;;;;;5011095;28;20205;-77
2022/01/16 05:49:53;;;;;;;22.20;15.57;;;;;;;;;;5008571;28;20597;-77
2022/01/16 05:52:20;;;;;;;24.65;16.60;;;;;;;;;;4994842;28;20196;-77
2022/01/16 05:54:47;;;;;;;20.52;15.50;;;;;;;;;;5011863;28;20196;-77
2022/01/16 05:57:16;;;;;;;24.58;16.35;;;;;;;;;;5012551;28;20200;-77
2022/01/16 05:59:43;;;;;;;22.70;14.60;;;;;;;;;;5008025;28;20204;-77
2022/01/16 06:02:10;;;;;;;25.90;16.13;;;;;;;;;;5011735;28;20246;-77
2022/01/16 06:04:37;;;;;;;23.65;16.13;;;;;;;;;;5012491;28;20197;-77
2022/01/16 06:07:05;;;;;;;21.73;14.63;;;;;;;;;;4996810;28;20225;-78
2022/01/16 06:09:32;;;;;;;26.38;15.68;;;;;;;;;;4991998;28;20193;-79
2022/01/16 06:11:59;;;;;;;22.23;14.93;;;;;;;;;;5007383;28;20192;-78
2022/01/16 06:14:28;;;;;;;27.10;16.80;;;;;;;;;;5011467;28;20188;-79
2022/01/16 06:16:55;;;;;;;27.52;15.77;;;;;;;;;;5010544;28;20216;-77
2022/01/16 06:19:22;;;;;;;28.90;18.23;;;;;;;;;;5011506;28;20211;-78
2022/01/16 06:21:49;;;;;;;25.50;16.38;;;;;;;;;;5009280;28;20200;-78
2022/01/16 06:24:16;;;;;;;24.33;16.58;;;;;;;;;;5011050;28;20196;-76
2022/01/16 06:26:44;;;;;;;21.98;16.30;;;;;;;;;;5011922;28;20718;-76
2022/01/16 06:29:11;;;;;;;26.67;16.65;;;;;;;;;;5009596;28;20931;-77
2022/01/16 06:31:39;;;;;;;29.02;16.92;;;;;;;;;;5009753;28;20200;-78
2022/01/16 06:34:06;;;;;;;23.35;17.35;;;;;;;;;;5011521;28;20206;-78
2022/01/16 06:36:34;;;;;;;30.17;17.60;;;;;;;;;;5000668;28;20644;-78
2022/01/16 06:39:01;;;;;;;27.58;17.00;;;;;;;;;;5010808;28;20207;-78
2022/01/16 06:41:28;;;;;;;27.65;17.30;;;;;;;;;;5010547;28;20192;-77
2022/01/16 06:43:55;;;;;;;25.98;18.00;;;;;;;;;;5009460;28;20212;-77
2022/01/16 06:46:22;;;;;;;27.17;18.08;;;;;;;;;;5009826;28;20343;-77
2022/01/16 06:48:51;;;;;;;30.77;19.17;;;;;;;;;;5003170;28;20188;-77
2022/01/16 06:51:19;;;;;;;25.00;18.38;;;;;;;;;;5005182;28;20200;-77
2022/01/16 06:53:46;;;;;;;29.00;17.23;;;;;;;;;;5012026;28;20586;-76
2022/01/16 06:56:13;;;;;;;26.52;17.38;;;;;;;;;;5011733;28;20228;-77
2022/01/16 06:58:40;;;;;;;29.15;17.63;;;;;;;;;;5007967;28;20208;-76
2022/01/16 07:01:07;;;;;;;31.95;21.48;;;;;;;;;;5007918;28;20188;-77
2022/01/16 07:03:35;;;;;;;31.83;18.48;;;;;;;;;;5009442;28;20195;-77
2022/01/16 07:06:03;;;;;;;30.83;18.90;;;;;;;;;;5007351;28;20580;-77
2022/01/16 07:08:30;;;;;;;28.60;18.95;;;;;;;;;;5009086;28;20195;-77
2022/01/16 07:10:59;;;;;;;28.80;19.33;;;;;;;;;;5006582;28;20204;-77
2022/01/16 07:13:27;;;;;;;38.50;19.42;;;;;;;;;;5005839;28;20615;-77
2022/01/16 07:15:54;;;;;;;30.70;18.65;;;;;;;;;;5000344;28;20207;-77
2022/01/16 07:18:23;;;;;;;32.63;20.05;;;;;;;;;;5010203;28;20192;-77
2022/01/16 07:20:50;;;;;;;27.25;16.20;;;;;;;;;;5004089;28;20215;-77
2022/01/16 07:23:19;;;;;;;31.52;19.88;;;;;;;;;;5002338;28;20200;-77
2022/01/16 07:25:46;;;;;;;27.27;19.08;;;;;;;;;;5011358;28;20251;-77
2022/01/16 07:28:13;;;;;;;26.10;17.42;;;;;;;;;;5011294;28;20202;-78
2022/01/16 07:30:40;;;;;;;30.77;18.73;;;;;;;;;;5005128;28;20212;-77
2022/01/16 07:33:08;;;;;;;29.95;18.17;;;;;;;;;;5000107;28;20538;-77
2022/01/16 07:35:35;;;;;;;25.45;17.20;;;;;;;;;;5007568;28;20201;-78
2022/01/16 07:38:03;;;;;;;27.55;18.48;;;;;;;;;;4995962;28;20199;-77
2022/01/16 07:40:35;;;;;;;34.42;19.95;;;;;;;;;;5009827;28;20192;-78
2022/01/16 07:43:02;;;;;;;29.08;17.45;;;;;;;;;;5009349;28;20196;-77
2022/01/16 07:45:29;;;;;;;31.33;19.95;;;;;;;;;;5007785;28;20319;-78
2022/01/16 07:47:56;;;;;;;29.30;18.90;;;;;;;;;;4995713;28;20197;-78
2022/01/16 07:50:23;;;;;;;36.95;20.60;;;;;;;;;;5008808;28;20536;-77
2022/01/16 07:52:51;;;;;;;38.92;20.25;;;;;;;;;;5003432;28;20200;-77
2022/01/16 07:55:21;;;;;;;29.05;18.55;;;;;;;;;;5014585;28;20207;-77
2022/01/16 07:57:51;;;;;;;28.08;18.58;;;;;;;;;;5013891;28;20188;-77
2022/01/16 08:00:18;;;;;;;33.90;19.75;;;;;;;;;;5011483;28;20477;-77
2022/01/16 08:02:45;;;;;;;34.50;20.42;;;;;;;;;;5014738;28;20199;-77
2022/01/16 08:05:12;;;;;;;27.00;18.35;;;;;;;;;;5014116;28;20200;-77
2022/01/16 08:07:40;;;;;;;30.27;18.10;;;;;;;;;;4998372;28;20219;-76
2022/01/16 08:10:07;;;;;;;38.38;21.02;;;;;;;;;;5012407;28;20197;-76
2022/01/16 08:12:34;;;;;;;29.42;20.85;;;;;;;;;;5012611;28;20200;-76
2022/01/16 08:15:03;;;;;;;31.00;20.75;;;;;;;;;;5004153;28;20560;-77
2022/01/16 08:17:30;;;;;;;42.95;23.80;;;;;;;;;;5010665;28;20223;-77
2022/01/16 08:19:57;;;;;;;31.60;21.48;;;;;;;;;;5009108;28;20189;-76
2022/01/16 08:22:24;;;;;;;36.75;21.08;;;;;;;;;;5006131;28;20196;-77
2022/01/16 08:24:51;;;;;;;36.90;20.55;;;;;;;;;;5005295;28;20192;-77
2022/01/16 08:27:18;;;;;;;36.97;22.15;;;;;;;;;;5011840;28;20216;-78
2022/01/16 08:29:45;;;;;;;34.28;22.25;;;;;;;;;;5009005;28;20196;-77
2022/01/16 08:32:13;;;;;;;33.25;19.80;;;;;;;;;;5011140;28;20192;-78
2022/01/16 08:34:40;;;;;;;34.45;21.73;;;;;;;;;;5012603;28;20196;-78
2022/01/16 08:37:07;;;;;;;34.22;20.67;;;;;;;;;;5005564;28;20196;-77
2022/01/16 08:39:34;;;;;;;33.50;20.52;;;;;;;;;;5006720;28;20554;-77
2022/01/16 08:42:01;;;;;;;34.42;21.60;;;;;;;;;;5009133;28;20196;-77
2022/01/16 08:44:28;;;;;;;28.20;19.95;;;;;;;;;;5007805;28;20200;-78
2022/01/16 08:46:56;;;;;;;34.17;20.67;;;;;;;;;;5004465;28;20223;-77
2022/01/16 08:49:24;;;;;;;31.73;21.60;;;;;;;;;;5007979;28;20201;-78
2022/01/16 08:51:51;;;;;;;32.75;21.52;;;;;;;;;;5004829;28;20204;-78
2022/01/16 08:54:18;;;;;;;29.40;22.45;;;;;;;;;;5007947;28;20629;-78
2022/01/16 08:56:45;;;;;;;40.95;24.83;;;;;;;;;;5005721;28;20675;-78
2022/01/16 08:59:12;;;;;;;35.42;24.00;;;;;;;;;;4999285;28;20204;-77
2022/01/16 09:01:40;;;;;;;33.33;23.15;;;;;;;;;;5007883;28;20195;-78
2022/01/16 09:04:07;;;;;;;36.25;22.55;;;;;;;;;;5009472;28;20204;-77
2022/01/16 09:06:35;;;;;;;36.97;25.65;;;;;;;;;;5004249;28;20220;-78
2022/01/16 09:09:02;;;;;;;37.05;21.85;;;;;;;;;;5007406;28;20200;-77
2022/01/16 09:11:29;;;;;;;37.58;23.00;;;;;;;;;;5010564;28;20197;-77
2022/01/16 09:13:58;;;;;;;36.33;26.00;;;;;;;;;;5007461;28;20226;-77
2022/01/16 09:16:25;;;;;;;38.22;23.27;;;;;;;;;;5010019;28;20255;-77
2022/01/16 09:18:52;;;;;;;38.83;26.13;;;;;;;;;;5015132;28;20197;-78
2022/01/16 09:21:20;;;;;;;35.85;25.10;;;;;;;;;;5009001;28;20680;-77
2022/01/16 09:23:49;;;;;;;39.30;23.65;;;;;;;;;;5010628;28;20196;-78
2022/01/16 09:26:16;;;;;;;34.03;24.67;;;;;;;;;;5010623;28;20227;-77
2022/01/16 09:28:44;;;;;;;38.85;24.67;;;;;;;;;;5010601;28;20195;-78
2022/01/16 09:31:11;;;;;;;32.88;23.05;;;;;;;;;;5002803;28;20205;-78
2022/01/16 09:33:38;;;;;;;33.30;23.08;;;;;;;;;;5005125;28;20211;-78
2022/01/16 09:36:07;;;;;;;36.65;24.30;;;;;;;;;;5010345;28;20192;-77
2022/01/16 09:38:34;;;;;;;42.75;23.42;;;;;;;;;;5012615;28;20272;-77
2022/01/16 09:41:04;;;;;;;35.17;23.60;;;;;;;;;;5009078;28;20199;-77
2022/01/16 09:43:32;;;;;;;33.92;22.50;;;;;;;;;;5009805;28;20262;-78
2022/01/16 09:45:59;;;;;;;33.15;22.85;;;;;;;;;;5009125;28;20212;-77
2022/01/16 09:48:27;;;;;;;41.90;25.95;;;;;;;;;;5011995;28;20254;-77
2022/01/16 09:50:54;;;;;;;38.83;25.88;;;;;;;;;;5002970;28;20552;-77
2022/01/16 09:53:21;;;;;;;34.90;23.38;;;;;;;;;;5010311;28;20681;-77
2022/01/16 09:55:49;;;;;;;34.33;24.20;;;;;;;;;;5010803;28;20195;-78
2022/01/16 09:58:17;;;;;;;38.60;23.67;;;;;;;;;;5009939;28;20208;-77
2022/01/16 10:00:44;;;;;;;32.05;23.63;;;;;;;;;;5009279;28;20200;-77
2022/01/16 10:03:11;;;;;;;33.92;25.95;;;;;;;;;;5011296;28;20196;-77
2022/01/16 10:05:39;;;;;;;35.80;24.45;;;;;;;;;;5008236;28;20205;-77
2022/01/16 10:08:07;;;;;;;32.83;23.20;;;;;;;;;;5007351;28;20239;-77
2022/01/16 10:10:35;;;;;;;35.97;24.48;;;;;;;;;;5008143;28;20196;-77
2022/01/16 10:13:20;;;;;;;38.95;24.88;;;;;;;;;;5009117;28;20197;-77
2022/01/16 10:15:54;;;;;;;40.03;24.88;;;;;;;;;;5001317;28;20647;-77
2022/01/16 10:18:32;;;;;;;36.58;24.67;;;;;;;;;;5011065;28;20669;-77
2022/01/16 10:20:59;;;;;;;29.88;22.23;;;;;;;;;;5003383;28;20602;-78
2022/01/16 10:23:26;;;;;;;32.17;22.90;;;;;;;;;;5011970;28;20242;-77
2022/01/16 10:25:53;;;;;;;35.22;22.58;;;;;;;;;;5006342;28;20556;-77
2022/01/16 10:28:21;;;;;;;33.95;21.33;;;;;;;;;;5001134;28;20216;-77
2022/01/16 10:30:49;;;;;;;34.60;22.67;;;;;;;;;;5007623;28;20200;-77
2022/01/16 10:33:19;;;;;;;33.10;22.30;;;;;;;;;;5010429;28;20192;-77
2022/01/16 10:35:47;;;;;;;35.53;22.60;;;;;;;;;;5007112;28;20232;-77
2022/01/16 10:38:17;;;;;;;29.02;20.00;;;;;;;;;;4992219;28;20291;-77
2022/01/16 10:40:50;;;;;;;38.47;24.90;;;;;;;;;;5006251;28;20199;-77
2022/01/16 10:43:17;;;;;;;35.90;24.25;;;;;;;;;;5009563;28;20243;-77
2022/01/16 10:45:45;;;;;;;37.65;22.55;;;;;;;;;;5002894;28;20204;-77
2022/01/16 10:48:13;;;;;;;37.42;23.98;;;;;;;;;;4999480;28;20209;-77
2022/01/16 10:50:43;;;;;;;38.42;25.27;;;;;;;;;;5003688;28;20228;-77
2022/01/16 10:53:11;;;;;;;34.70;22.42;;;;;;;;;;5011269;28;20199;-76
2022/01/16 10:55:40;;;;;;;39.53;25.15;;;;;;;;;;5002696;28;20193;-77
2022/01/16 10:58:09;;;;;;;35.35;23.20;;;;;;;;;;5006672;28;20200;-78
2022/01/16 11:00:37;;;;;;;29.08;21.30;;;;;;;;;;5008876;28;20266;-74
2022/01/16 11:03:05;;;;;;;31.73;22.88;;;;;;;;;;5011545;28;20196;-76
2022/01/16 11:05:34;;;;;;;31.92;22.67;;;;;;;;;;5005183;28;20236;-78
2022/01/16 11:08:03;;;;;;;40.03;22.95;;;;;;;;;;5008850;28;20573;-76
2022/01/16 11:10:32;;;;;;;30.60;21.35;;;;;;;;;;4998488;28;20199;-78
2022/01/16 11:12:59;;;;;;;34.67;22.20;;;;;;;;;;5004017;28;20196;-79
2022/01/16 11:15:27;;;;;;;31.58;22.35;;;;;;;;;;5004660;28;20204;-79
2022/01/16 11:17:55;;;;;;;34.13;22.20;;;;;;;;;;5000972;28;20226;-77
2022/01/16 11:20:28;;;;;;;31.60;22.40;;;;;;;;;;5002852;28;20200;-77
2022/01/16 11:23:01;;;;;;;31.67;21.77;;;;;;;;;;5004455;28;20220;-78
2022/01/16 11:25:38;;;;;;;27.38;20.63;;;;;;;;;;5006111;28;20292;-78
2022/01/16 11:28:07;;;;;;;32.42;21.58;;;;;;;;;;5007292;28;20527;-78
2022/01/16 11:30:35;;;;;;;40.65;24.33;;;;;;;;;;4998787;28;20203;-77
2022/01/16 11:33:02;;;;;;;34.83;22.77;;;;;;;;;;5005528;28;20203;-78
2022/01/16 11:35:30;;;;;;;29.80;19.60;;;;;;;;;;5005950;28;20200;-77
2022/01/16 11:37:58;;;;;;;30.20;20.67;;;;;;;;;;5000267;28;20200;-78
2022/01/16 11:40:27;;;;;;;31.73;22.02;;;;;;;;;;5003869;28;20722;-78
2022/01/16 11:43:19;;;;;;;33.17;20.25;;;;;;;;;;4997475;28;20292;-78
2022/01/16 11:45:51;;;;;;;26.55;19.35;;;;;;;;;;5003391;28;20196;-77
2022/01/16 11:48:35;;;;;;;30.27;21.08;;;;;;;;;;5002432;28;20467;-76
2022/01/16 11:51:02;;;;;;;32.50;19.80;;;;;;;;;;5003939;28;20283;-76
2022/01/16 11:53:48;;;;;;;29.17;19.92;;;;;;;;;;5004773;28;20200;-78
2022/01/16 11:56:33;;;;;;;24.75;18.42;;;;;;;;;;5003382;28;20282;-77
2022/01/16 11:59:18;;;;;;;32.50;21.00;;;;;;;;;;4992560;28;20212;-78
2022/01/16 12:01:46;;;;;;;26.25;18.98;;;;;;;;;;5003296;28;20192;-78
2022/01/16 12:04:28;;;;;;;30.75;22.27;;;;;;;;;;5002587;28;20192;-77
2022/01/16 12:06:55;;;;;;;29.73;19.02;;;;;;;;;;5003348;28;20196;-77
2022/01/16 12:09:39;;;;;;;32.72;21.92;;;;;;;;;;5006263;28;20195;-78
2022/01/16 12:12:27;;;;;;;27.88;18.90;;;;;;;;;;5006289;28;20196;-78
2022/01/16 12:14:56;;;;;;;26.98;18.88;;;;;;;;;;5001471;28;20283;-78
2022/01/16 12:17:26;;;;;;;32.65;19.80;;;;;;;;;;5001290;28;21925;-77
2022/01/16 12:19:53;;;;;;;28.83;20.17;;;;;;;;;;5000924;28;20279;-77
2022/01/16 12:22:36;;;;;;;29.80;20.95;;;;;;;;;;5005264;28;20292;-78
2022/01/16 12:25:08;;;;;;;24.45;18.65;;;;;;;;;;5006401;28;20260;-78
2022/01/16 12:27:45;;;;;;;28.20;18.48;;;;;;;;;;5010907;28;20216;-78
2022/01/16 12:30:33;;;;;;;25.08;19.77;;;;;;;;;;5003946;28;20210;-75
2022/01/16 12:33:09;;;;;;;29.85;21.00;;;;;;;;;;5010865;28;20203;-76
2022/01/16 12:36:08;;;;;;;26.65;20.00;;;;;;;;;;5008095;28;20617;-76
2022/01/16 12:38:37;;;;;;;27.90;19.45;;;;;;;;;;5010484;28;20704;-75
2022/01/16 12:41:08;;;;;;;29.65;18.05;;;;;;;;;;5008171;28;20283;-77
2022/01/16 12:43:41;;;;;;;28.83;18.60;;;;;;;;;;5009400;28;20315;-75
2022/01/16 12:46:09;;;;;;;31.25;19.42;;;;;;;;;;5006539;28;20644;-77
2022/01/16 12:48:41;;;;;;;27.45;18.83;;;;;;;;;;5004562;28;20351;-75
2022/01/16 12:51:09;;;;;;;31.25;21.90;;;;;;;;;;5008042;28;20559;-74
2022/01/16 12:53:37;;;;;;;24.42;18.15;;;;;;;;;;5010133;28;20307;-75
2022/01/16 12:56:21;;;;;;;34.53;22.85;;;;;;;;;;5011252;28;20196;-76
2022/01/16 12:58:49;;;;;;;29.08;18.38;;;;;;;;;;5007502;28;20208;-76
2022/01/16 13:01:16;;;;;;;30.10;19.67;;;;;;;;;;5003592;28;20671;-75
2022/01/16 13:03:45;;;;;;;33.28;21.38;;;;;;;;;;5004758;28;20565;-76
2022/01/16 13:06:15;;;;;;;29.23;19.08;;;;;;;;;;5002916;28;20215;-76
2022/01/16 13:08:51;;;;;;;27.48;20.15;;;;;;;;;;5005987;28;20230;-76
2022/01/16 13:11:19;;;;;;;24.73;18.42;;;;;;;;;;5009593;28;20196;-75
2022/01/16 13:13:46;;;;;;;30.63;20.00;;;;;;;;;;5009264;28;20235;-76
2022/01/16 13:16:20;;;;;;;29.98;20.77;;;;;;;;;;5002666;28;20255;-76
2022/01/16 13:19:05;;;;;;;25.58;18.95;;;;;;;;;;5007511;28;20290;-77
2022/01/16 13:21:40;;;;;;;24.70;18.40;;;;;;;;;;5004612;28;20559;-77
2022/01/16 13:24:07;;;;;;;29.88;19.20;;;;;;;;;;5008714;28;20200;-76
2022/01/16 13:26:34;;;;;;;28.70;19.25;;;;;;;;;;5008101;28;20208;-77
2022/01/16 13:29:02;;;;;;;26.20;18.95;;;;;;;;;;5004973;28;20229;-76
2022/01/16 13:31:29;;;;;;;39.53;21.00;;;;;;;;;;5007006;28;20217;-74
2022/01/16 13:34:14;;;;;;;29.13;20.13;;;;;;;;;;5006366;28;20216;-77
2022/01/16 13:36:51;;;;;;;34.65;19.70;;;;;;;;;;5008545;28;20313;-75
2022/01/16 13:39:33;;;;;;;38.22;23.05;;;;;;;;;;4996118;28;20295;-76
2022/01/16 13:42:17;;;;;;;30.95;22.92;;;;;;;;;;5007576;28;20200;-78
2022/01/16 13:44:45;;;;;;;32.40;21.75;;;;;;;;;;5004341;28;20251;-77
2022/01/16 13:47:16;;;;;;;34.78;21.48;;;;;;;;;;5004651;28;20200;-76
2022/01/16 13:49:46;;;;;;;34.70;21.73;;;;;;;;;;5006952;28;20204;-76
2022/01/16 13:52:14;;;;;;;34.80;23.20;;;;;;;;;;4994402;28;20201;-76
2022/01/16 13:54:41;;;;;;;34.60;23.63;;;;;;;;;;4989782;28;20197;-76
2022/01/16 13:57:09;;;;;;;34.83;22.17;;;;;;;;;;5005638;28;20227;-76
2022/01/16 13:59:36;;;;;;;31.20;21.52;;;;;;;;;;5008016;28;20200;-77
2022/01/16 14:02:03;;;;;;;38.25;22.30;;;;;;;;;;5005350;28;20200;-76
2022/01/16 14:04:30;;;;;;;34.13;22.48;;;;;;;;;;5009206;28;20196;-77
2022/01/16 14:07:00;;;;;;;36.72;20.52;;;;;;;;;;5010060;28;20291;-77
2022/01/16 14:09:30;;;;;;;31.70;19.30;;;;;;;;;;5010133;28;20231;-77
2022/01/16 14:11:57;;;;;;;33.65;21.58;;;;;;;;;;5017272;28;20569;-78
2022/01/16 14:14:26;;;;;;;39.45;21.45;;;;;;;;;;5008163;28;20567;-78
2022/01/16 14:17:17;;;;;;;31.45;20.25;;;;;;;;;;5005386;28;20631;-77
2022/01/16 14:20:00;;;;;;;36.17;20.55;;;;;;;;;;5001610;28;20252;-78
2022/01/16 14:22:29;;;;;;;27.48;19.55;;;;;;;;;;4998926;28;20192;-77
2022/01/16 14:24:58;;;;;;;34.35;20.33;;;;;;;;;;5001812;28;20369;-77
2022/01/16 14:27:26;;;;;;;36.95;22.10;;;;;;;;;;5000096;28;20188;-75
2022/01/16 14:29:54;;;;;;;41.40;24.17;;;;;;;;;;5001780;28;20193;-77
2022/01/16 14:32:22;;;;;;;34.03;21.40;;;;;;;;;;5004192;28;20679;-76
2022/01/16 14:34:50;;;;;;;35.63;20.88;;;;;;;;;;5007020;28;20188;-78
2022/01/16 14:37:18;;;;;;;33.08;19.27;;;;;;;;;;5004003;28;20207;-78
2022/01/16 14:39:47;;;;;;;33.75;21.08;;;;;;;;;;5001508;28;20643;-78
2022/01/16 14:42:16;;;;;;;30.58;20.27;;;;;;;;;;5004589;28;20472;-78
2022/01/16 14:44:44;;;;;;;33.03;21.67;;;;;;;;;;5007161;28;20234;-78
2022/01/16 14:47:11;;;;;;;34.50;21.15;;;;;;;;;;5006010;28;20188;-78
2022/01/16 14:49:39;;;;;;;41.75;22.08;;;;;;;;;;5002338;28;20756;-78
2022/01/16 14:52:06;;;;;;;36.85;18.88;;;;;;;;;;5000419;28;20283;-78
2022/01/16 14:54:33;;;;;;;30.08;18.63;;;;;;;;;;5004110;28;20188;-78
2022/01/16 14:57:02;;;;;;;35.47;21.88;;;;;;;;;;5006594;28;20246;-78
2022/01/16 14:59:32;;;;;;;35.13;21.52;;;;;;;;;;5001544;28;20201;-78
2022/01/16 15:01:59;;;;;;;34.13;20.88;;;;;;;;;;5002127;28;20192;-78
2022/01/16 15:04:27;;;;;;;30.60;19.80;;;;;;;;;;5001694;28;20209;-78